Terminal Aerodrome Forecast
Issued by NWS

Home | Current Version | Previous Version | Text Only | Print | Product List | Glossary On
Versions: 1 2 3 4 5 6 7 8 9 10 11 12 13 14 15 16 17 18
000
FTUS42 KMLB 281213 AAA
TAFSUA
TAF AMD
KSUA 281213Z 2812/2912 VRB03KT P6SM VCSH SCT050 BKN150
     FM281500 10007KT P6SM SCT025 OVC150
     FM281800 12008KT P6SM VCSH BKN035 BKN100
      TEMPO 2818/2822 3SM SHRA BR BKN025 OVC050
     FM290000 18005KT P6SM VCSH BKN050 OVC100
      TEMPO 2900/2904 3SM SHRA BR BKN025
     FM290600 20005KT P6SM VCSH BKN025=

USA.gov is the U.S. government's official web portal to all federal, state and local government web resources and services.